Suomigracht — PHBT — position and weather

sailwx.info

Track history (hours):
 
Tides and Currents Weather Stations Pressure Air Temp Water Temp Dewpoint Dewpoint Depression Visibility Wind Speed Wind Dir Waves Ship Positions

Suomigracht

Last reported at 2014-Oct-30 11:33 UTC. Time now 2014-Oct-30 12:15 UTC.
Position N 51°13' E 002°01'.

Length 173 m; beam 26 m.

Type: Cargo ship. MMSI: 246100000.

Date/timePositionNaut miles runAvg speedWind from/ knotsBaromVisibWave heightAir tempDewpointWater temp
2014-Oct-30 11:33N 51°13' E 002°01'1413.6
2014-Oct-30 10:33N 51°04' E 001°44'1413.7
2014-Oct-30 09:32N 50°54' E 001°28'1414.3
2014-Oct-30 08:33N 50°41' E 001°20'1714.5
2014-Oct-30 07:23N 50°30' E 001°00'4214.4
2014-Oct-30 04:27N 50°18' W 000°03'12016.7
2014-Oct-29 21:13N 49°47' W 003°05'1216.4
2014-Oct-29 20:27N 49°44' W 003°23'  
2014-Oct-26 12:07N 39°18' W 027°39'915.1
2014-Oct-26 11:33N 39°15' W 027°49'1515.5
2014-Oct-26 10:33N 39°10' W 028°08'1515.2
2014-Oct-26 09:33N 39°04' W 028°26'1515.3
2014-Oct-26 08:33N 38°59' W 028°45'1515.1
2014-Oct-26 07:33N 38°54' W 029°03'1515.5
2014-Oct-26 06:34N 38°48' W 029°22'1615.6
2014-Oct-26 05:33N 38°42' W 029°40'1515.3
2014-Oct-26 04:33N 38°36' W 029°58'1615.6
2014-Oct-26 03:34N 38°31' W 030°17'1515.5
2014-Oct-26 02:33N 38°25' W 030°35'  
Track history (hours):
 
Tides and Currents Weather Stations Pressure Air Temp Water Temp Dewpoint Dewpoint Depression Visibility Wind Speed Wind Dir Waves Ship Positions

Suomigracht

Last reported at 2014-Oct-30 11:33 UTC. Time now 2014-Oct-30 12:15 UTC.
Position N 51°13' E 002°01'.

Length 173 m; beam 26 m.

Type: Cargo ship. MMSI: 246100000.

Date/timePositionNaut miles runAvg speedWind from/ knotsBaromVisibWave heightAir tempDewpointWater temp
2014-Oct-30 11:33N 51°13' E 002°01'1413.6
2014-Oct-30 10:33N 51°04' E 001°44'1413.7
2014-Oct-30 09:32N 50°54' E 001°28'1414.3
2014-Oct-30 08:33N 50°41' E 001°20'1714.5
2014-Oct-30 07:23N 50°30' E 001°00'4214.4
2014-Oct-30 04:27N 50°18' W 000°03'12016.7
2014-Oct-29 21:13N 49°47' W 003°05'1216.4
2014-Oct-29 20:27N 49°44' W 003°23'  
2014-Oct-26 12:07N 39°18' W 027°39'915.1
2014-Oct-26 11:33N 39°15' W 027°49'1515.5
2014-Oct-26 10:33N 39°10' W 028°08'1515.2
2014-Oct-26 09:33N 39°04' W 028°26'1515.3
2014-Oct-26 08:33N 38°59' W 028°45'1515.1
2014-Oct-26 07:33N 38°54' W 029°03'1515.5
2014-Oct-26 06:34N 38°48' W 029°22'1615.6
2014-Oct-26 05:33N 38°42' W 029°40'1515.3
2014-Oct-26 04:33N 38°36' W 029°58'1615.6
2014-Oct-26 03:34N 38°31' W 030°17'1515.5
2014-Oct-26 02:33N 38°25' W 030°35'  

Dump ship's entire track history